createdAt,value
2018-05-27T00:00:37.934Z,99951.71
2018-05-27T00:03:04.324Z,99941.42
2018-05-27T00:05:30.735Z,99942.76
2018-05-27T00:07:57.104Z,99943.66
2018-05-27T00:10:23.504Z,99942.61
2018-05-27T00:12:49.872Z,99936.16
2018-05-27T00:15:16.245Z,99937.78
2018-05-27T00:17:42.642Z,99936.98
2018-05-27T00:20:09.066Z,99933.61
2018-05-27T00:22:35.449Z,99935.23
2018-05-27T00:25:01.801Z,99930.05
2018-05-27T00:27:28.162Z,99938.16
2018-05-27T00:29:54.541Z,99935.38
2018-05-27T00:32:20.954Z,99940.80
2018-05-27T00:34:47.398Z,99934.47
2018-05-27T00:37:13.763Z,99938.95
2018-05-27T00:39:40.154Z,99938.61
2018-05-27T00:42:06.497Z,99935.82
2018-05-27T00:44:32.866Z,99943.69
2018-05-27T00:46:59.285Z,99948.34
2018-05-27T00:49:25.681Z,99943.18
2018-05-27T00:51:52.088Z,99949.66
2018-05-27T00:54:18.450Z,99953.41
2018-05-27T00:56:44.812Z,99944.18
2018-05-27T00:59:11.254Z,99951.39
2018-05-27T01:01:37.700Z,99951.98
2018-05-27T01:04:04.156Z,99943.98
2018-05-27T01:06:30.594Z,99951.36
2018-05-27T01:08:57.052Z,99959.55
2018-05-27T01:11:23.449Z,99954.16
2018-05-27T01:13:49.826Z,99946.02
2018-05-27T01:16:16.320Z,99945.34
2018-05-27T01:18:42.709Z,99948.77
2018-05-27T01:21:09.041Z,99944.45
2018-05-27T01:23:35.433Z,99948.03
2018-05-27T01:26:01.823Z,99942.12
2018-05-27T01:28:28.360Z,99941.46
2018-05-27T01:30:54.785Z,99935.77
2018-05-27T01:33:21.232Z,99934.55
2018-05-27T01:35:47.649Z,99931.77
2018-05-27T01:38:13.997Z,99940.21
2018-05-27T01:40:41.185Z,99943.79
2018-05-27T01:43:07.533Z,99938.30
2018-05-27T01:45:33.995Z,99946.97
2018-05-27T01:48:00.469Z,99943.47
2018-05-27T01:50:26.862Z,99944.53
2018-05-27T01:52:53.336Z,99945.05
2018-05-27T01:55:19.681Z,99944.07
2018-05-27T01:57:46.127Z,99940.70
2018-05-27T02:00:12.534Z,99939.72
2018-05-27T02:02:38.999Z,99940.52
2018-05-27T02:05:05.607Z,99938.48
2018-05-27T02:07:32.009Z,99939.37
2018-05-27T02:09:58.388Z,99937.72
2018-05-27T02:12:24.737Z,99933.23
2018-05-27T02:14:51.161Z,99938.25
2018-05-27T02:17:17.774Z,99944.05
2018-05-27T02:19:44.285Z,99950.31
2018-05-27T02:22:10.648Z,99952.76
2018-05-27T02:24:37.077Z,99958.53
2018-05-27T02:27:03.476Z,99954.09
2018-05-27T02:29:29.839Z,99961.09
2018-05-27T02:31:56.259Z,99967.56
2018-05-27T02:34:22.642Z,99963.53
2018-05-27T02:36:49.009Z,99973.58
2018-05-27T02:39:15.365Z,99967.91
2018-05-27T02:41:41.800Z,99973.02
2018-05-27T02:44:08.162Z,99975.14
2018-05-27T02:46:34.542Z,99975.70
2018-05-27T02:49:00.915Z,99980.08
2018-05-27T02:51:27.287Z,99976.73
2018-05-27T02:53:53.664Z,99974.14
2018-05-27T02:56:20.113Z,99969.53
2018-05-27T02:58:46.535Z,99978.70
2018-05-27T03:01:12.877Z,99973.23
2018-05-27T03:03:39.412Z,99978.17
2018-05-27T03:06:05.829Z,99971.13
2018-05-27T03:08:32.271Z,99979.00
2018-05-27T03:10:58.670Z,99981.13
2018-05-27T03:13:25.232Z,99984.54
2018-05-27T03:15:51.599Z,99981.48
2018-05-27T03:18:17.962Z,99984.16
2018-05-27T03:20:44.292Z,99976.16
2018-05-27T03:23:10.624Z,99982.45
2018-05-27T03:25:37.014Z,99979.45
2018-05-27T03:28:04.361Z,99976.34
2018-05-27T03:30:30.683Z,99978.06
2018-05-27T03:32:57.236Z,99981.45
2018-05-27T03:35:23.710Z,99984.06
2018-05-27T03:37:50.058Z,99982.48
2018-05-27T03:40:16.426Z,99981.97
2018-05-27T03:42:42.918Z,99983.73
2018-05-27T03:45:09.325Z,99990.30
2018-05-27T03:47:35.689Z,99993.54
2018-05-27T03:50:02.094Z,99996.02
2018-05-27T03:52:28.527Z,100006.31
2018-05-27T03:54:54.987Z,99996.13
2018-05-27T03:57:21.446Z,99997.93
2018-05-27T03:59:47.817Z,99997.50
2018-05-27T04:02:14.196Z,99995.11
2018-05-27T04:05:01.358Z,99992.34
2018-05-27T04:07:39.870Z,99995.92
2018-05-27T04:10:06.239Z,99996.05
2018-05-27T04:12:32.611Z,100002.27
2018-05-27T04:14:58.969Z,100005.92
2018-05-27T04:17:25.350Z,100004.72
2018-05-27T04:19:52.706Z,100001.58
2018-05-27T04:22:19.073Z,100000.31
2018-05-27T04:24:45.426Z,99996.22
2018-05-27T04:27:11.781Z,100004.39
2018-05-27T04:29:38.102Z,99998.31
2018-05-27T04:32:04.502Z,100008.66
2018-05-27T04:34:30.898Z,100000.91
2018-05-27T04:36:57.307Z,100002.48
2018-05-27T04:39:23.717Z,100003.89
2018-05-27T04:41:50.221Z,100004.44
2018-05-27T04:44:16.653Z,100009.21
2018-05-27T04:46:43.089Z,100010.94
2018-05-27T04:49:09.453Z,100013.08
2018-05-27T04:51:35.814Z,100006.11
2018-05-27T04:54:02.235Z,100010.66
2018-05-27T04:56:28.598Z,100012.25
2018-05-27T04:58:55.000Z,100017.97
2018-05-27T05:01:21.414Z,100016.77
2018-05-27T05:03:47.813Z,100024.36
2018-05-27T05:06:14.204Z,100022.29
2018-05-27T05:08:41.069Z,100027.03
2018-05-27T05:11:07.397Z,100034.14
2018-05-27T05:13:33.786Z,100023.47
2018-05-27T05:16:00.105Z,100023.66
2018-05-27T05:18:26.455Z,100028.01
2018-05-27T05:20:52.826Z,100021.75
2018-05-27T05:23:19.202Z,100025.22
2018-05-27T05:25:58.860Z,100020.97
2018-05-27T05:28:25.279Z,100022.75
2018-05-27T05:30:51.746Z,100018.95
2018-05-27T05:33:18.191Z,100020.70
2018-05-27T05:35:44.640Z,100018.02
2018-05-27T05:38:11.043Z,100022.11
2018-05-27T05:40:37.384Z,100019.89
2018-05-27T05:43:03.866Z,100018.17
2018-05-27T05:45:30.307Z,100024.09
2018-05-27T05:47:56.807Z,100027.70
2018-05-27T05:50:23.240Z,100033.00
2018-05-27T05:52:49.650Z,100046.81
2018-05-27T05:55:16.073Z,100043.42
2018-05-27T05:57:42.482Z,100047.23
2018-05-27T06:00:16.460Z,100044.97
2018-05-27T06:03:04.647Z,100039.33
2018-05-27T06:05:31.064Z,100031.80
2018-05-27T06:07:57.565Z,100026.92
2018-05-27T06:10:59.381Z,100037.77
2018-05-27T06:13:25.860Z,100041.03
2018-05-27T06:16:03.114Z,100033.36
2018-05-27T06:18:33.613Z,100042.09
2018-05-27T06:21:00.722Z,100037.28
2018-05-27T06:23:27.225Z,100041.67
2018-05-27T06:25:54.187Z,100039.84
2018-05-27T06:28:20.757Z,100039.21
2018-05-27T06:31:11.139Z,100039.42
2018-05-27T06:33:37.539Z,100046.55
2018-05-27T06:36:04.129Z,100044.19
2018-05-27T06:38:52.568Z,100042.93
2018-05-27T06:41:53.991Z,100049.00
2018-05-27T06:44:35.215Z,100052.67
2018-05-27T06:47:23.002Z,100043.22
2018-05-27T06:50:40.603Z,100050.73
2018-05-27T06:53:07.979Z,100048.36
2018-05-27T06:55:34.493Z,100050.17
2018-05-27T06:58:00.942Z,100042.70
2018-05-27T07:00:27.281Z,100045.00
2018-05-27T07:02:53.668Z,100039.28
2018-05-27T07:05:20.051Z,100033.40
2018-05-27T07:07:46.384Z,100033.44
2018-05-27T07:10:12.714Z,100039.09
2018-05-27T07:12:39.109Z,100035.98
2018-05-27T07:15:05.517Z,100029.05
2018-05-27T07:17:31.883Z,100031.14
2018-05-27T07:19:58.279Z,100030.22
2018-05-27T07:22:24.682Z,100031.83
2018-05-27T07:24:51.052Z,100045.13
2018-05-27T07:27:17.475Z,100046.63
2018-05-27T07:29:43.873Z,100051.69
2018-05-27T07:32:10.519Z,100047.61
2018-05-27T07:34:36.941Z,100045.87
2018-05-27T07:37:03.362Z,100056.83
2018-05-27T07:39:29.890Z,100050.57
2018-05-27T07:41:56.315Z,100055.42
2018-05-27T07:44:22.829Z,100050.00
2018-05-27T07:46:49.221Z,100054.13
2018-05-27T07:49:15.682Z,100058.69
2018-05-27T07:51:42.124Z,100063.44
2018-05-27T07:54:08.534Z,100062.94
2018-05-27T07:56:34.954Z,100068.17
2018-05-27T07:59:01.427Z,100078.23
2018-05-27T08:01:27.924Z,100081.23
2018-05-27T08:03:54.287Z,100075.20
2018-05-27T08:06:20.692Z,100078.16
2018-05-27T08:08:47.093Z,100077.73
2018-05-27T08:11:13.474Z,100081.11
2018-05-27T08:13:39.868Z,100083.80
2018-05-27T08:16:06.222Z,100078.70
2018-05-27T08:18:32.535Z,100090.45
2018-05-27T08:20:58.880Z,100081.26
2018-05-27T08:23:25.291Z,100088.13
2018-05-27T08:25:51.889Z,100087.20
2018-05-27T08:28:18.184Z,100085.65
2018-05-27T08:30:44.630Z,100089.20
2018-05-27T08:33:11.073Z,100093.12
2018-05-27T08:35:37.381Z,100090.34
2018-05-27T08:38:03.815Z,100087.70
2018-05-27T08:40:30.350Z,100089.05
2018-05-27T08:42:56.750Z,100079.69
2018-05-27T08:45:23.258Z,100084.55
2018-05-27T08:47:50.674Z,100077.09
2018-05-27T08:50:17.108Z,100076.67
2018-05-27T08:52:43.512Z,100073.44
2018-05-27T08:55:09.860Z,100074.80
2018-05-27T08:57:36.366Z,100072.24
2018-05-27T09:00:02.785Z,100066.44
2018-05-27T09:02:29.090Z,100068.32
2018-05-27T09:04:55.478Z,100066.44
2018-05-27T09:07:21.814Z,100063.78
2018-05-27T09:09:48.158Z,100059.81
2018-05-27T09:12:14.496Z,100058.42
2018-05-27T09:14:40.859Z,100053.17
2018-05-27T09:17:07.197Z,100058.13
2018-05-27T09:19:33.556Z,100059.67
2018-05-27T09:21:59.962Z,100057.02
2018-05-27T09:24:26.379Z,100063.94
2018-05-27T09:26:52.791Z,100062.27
2018-05-27T09:29:19.228Z,100064.36
2018-05-27T09:31:45.658Z,100049.31
2018-05-27T09:34:12.067Z,100059.23
2018-05-27T09:36:38.366Z,100053.94
2018-05-27T09:39:05.670Z,100052.54
2018-05-27T09:41:32.545Z,100058.75
2018-05-27T09:43:58.889Z,100057.94
2018-05-27T09:46:25.314Z,100052.25
2018-05-27T09:48:52.705Z,100052.27
2018-05-27T09:51:19.073Z,100057.12
2018-05-27T09:53:45.369Z,100067.16
2018-05-27T09:56:12.553Z,100048.03
2018-05-27T09:58:38.890Z,100053.59
2018-05-27T10:01:05.267Z,100048.59
2018-05-27T10:03:31.607Z,100056.27
2018-05-27T10:05:57.947Z,100048.71
2018-05-27T10:08:24.444Z,100057.34
2018-05-27T10:10:51.668Z,100050.73
2018-05-27T10:13:17.974Z,100047.55
2018-05-27T10:15:44.398Z,100049.31
2018-05-27T10:18:11.754Z,100047.41
2018-05-27T10:20:38.182Z,100039.98
2018-05-27T10:23:05.561Z,100045.19
2018-05-27T10:25:32.826Z,100034.98
2018-05-27T10:27:59.122Z,100025.95
2018-05-27T10:30:25.522Z,100034.88
2018-05-27T10:32:51.885Z,100024.36
2018-05-27T10:35:18.286Z,100020.20
2018-05-27T10:37:44.687Z,100021.17
2018-05-27T10:40:11.083Z,100023.08
2018-05-27T10:42:37.405Z,100009.34
2018-05-27T10:45:03.744Z,100007.23
2018-05-27T10:47:30.155Z,100007.84
2018-05-27T10:49:56.548Z,100008.20
2018-05-27T10:52:22.969Z,100003.23
2018-05-27T10:54:49.416Z,99996.39
2018-05-27T10:57:15.866Z,99998.59
2018-05-27T10:59:42.183Z,100002.28
2018-05-27T11:02:09.830Z,99984.68
2018-05-27T11:04:40.078Z,99989.28
2018-05-27T11:07:06.367Z,99985.77
2018-05-27T11:09:32.661Z,99990.66
2018-05-27T11:11:59.046Z,99989.03
2018-05-27T11:14:25.441Z,99976.74
2018-05-27T11:16:51.978Z,99980.17
2018-05-27T11:19:18.271Z,99977.17
2018-05-27T11:21:44.587Z,99977.95
2018-05-27T11:24:10.921Z,99970.64
2018-05-27T11:26:37.226Z,99976.90
2018-05-27T11:29:03.561Z,99987.75
2018-05-27T11:31:29.880Z,99984.46
2018-05-27T11:33:56.210Z,99979.54
2018-05-27T11:36:22.501Z,99983.30
2018-05-27T11:38:48.805Z,99975.21
2018-05-27T11:41:15.204Z,99984.89
2018-05-27T11:43:41.557Z,99970.16
2018-05-27T11:46:07.930Z,99978.52
2018-05-27T11:48:34.291Z,99972.58
2018-05-27T11:51:00.658Z,99981.10
2018-05-27T11:53:26.976Z,99970.97
2018-05-27T11:55:53.300Z,99977.55
2018-05-27T11:58:19.666Z,99967.52
2018-05-27T12:00:46.162Z,99974.02
2018-05-27T12:03:12.470Z,99975.63
2018-05-27T12:05:39.605Z,99969.64
2018-05-27T12:08:10.668Z,99970.64
2018-05-27T12:10:37.392Z,99970.91
2018-05-27T12:15:41.015Z,99967.27
2018-05-27T12:18:08.366Z,99964.83
2018-05-27T12:20:34.876Z,99970.97
2018-05-27T12:23:01.264Z,99964.16
2018-05-27T12:25:27.999Z,99965.05
2018-05-27T12:27:54.337Z,99969.63
2018-05-27T12:30:20.649Z,99969.20
2018-05-27T12:32:46.926Z,99969.31
2018-05-27T12:35:13.479Z,99971.73
2018-05-27T12:37:39.807Z,99960.29
2018-05-27T12:40:06.446Z,99974.80
2018-05-27T12:42:33.110Z,99961.78
2018-05-27T12:44:59.643Z,99960.71
2018-05-27T12:47:25.952Z,99961.16
2018-05-27T12:49:56.270Z,99959.86
2018-05-27T12:52:22.632Z,99951.70
2018-05-27T12:54:48.932Z,99946.28
2018-05-27T12:57:15.232Z,99940.75
2018-05-27T12:59:41.607Z,99939.91
2018-05-27T13:02:07.894Z,99948.48
2018-05-27T13:04:34.333Z,99951.44
2018-05-27T13:07:00.824Z,99953.28
2018-05-27T13:09:27.182Z,99946.97
2018-05-27T13:11:53.606Z,99949.17
2018-05-27T13:14:19.890Z,99944.25
2018-05-27T13:16:46.366Z,99946.20
2018-05-27T13:19:12.746Z,99942.09
2018-05-27T13:21:39.263Z,99935.03
2018-05-27T13:24:05.663Z,99942.55
2018-05-27T13:26:31.944Z,99937.00
2018-05-27T13:28:58.361Z,99938.73
2018-05-27T13:31:24.701Z,99940.56
2018-05-27T13:33:51.080Z,99942.32
2018-05-27T13:36:17.390Z,99940.06
2018-05-27T13:38:43.745Z,99937.63
2018-05-27T13:41:10.143Z,99939.56
2018-05-27T13:43:36.773Z,99922.90
2018-05-27T13:46:03.134Z,99927.53
2018-05-27T13:48:29.539Z,99930.23
2018-05-27T13:50:55.977Z,99924.23
2018-05-27T13:53:22.440Z,99930.25
2018-05-27T13:55:48.717Z,99925.35
2018-05-27T13:58:15.071Z,99928.05
2018-05-27T14:00:41.365Z,99934.81
2018-05-27T14:03:07.764Z,99931.77
2018-05-27T14:05:34.250Z,99929.06
2018-05-27T14:08:00.575Z,99923.45
2018-05-27T14:10:26.998Z,99926.13
2018-05-27T14:12:53.371Z,99929.31
2018-05-27T14:15:21.259Z,99929.08
2018-05-27T14:17:50.495Z,99918.22
2018-05-27T14:20:18.534Z,99922.25
2018-05-27T14:22:44.906Z,99919.30
2018-05-27T14:25:11.295Z,99917.03
2018-05-27T14:27:37.658Z,99916.37
2018-05-27T14:30:04.146Z,99914.00
2018-05-27T14:32:30.471Z,99901.63
2018-05-27T14:34:56.837Z,99896.67
2018-05-27T14:37:23.162Z,99892.53
2018-05-27T14:39:49.595Z,99901.73
2018-05-27T14:42:16.544Z,99896.83
2018-05-27T14:47:35.384Z,99897.33
2018-05-27T14:50:01.753Z,99893.35
2018-05-27T14:52:29.386Z,99895.49
2018-05-27T14:54:55.953Z,99888.10
2018-05-27T14:57:22.362Z,99896.08
2018-05-27T14:59:48.741Z,99897.69
2018-05-27T15:02:15.147Z,99897.59
2018-05-27T15:04:41.461Z,99890.36
2018-05-27T15:07:07.862Z,99895.89
2018-05-27T15:09:34.292Z,99900.03
2018-05-27T15:12:00.886Z,99902.30
2018-05-27T15:14:27.299Z,99902.50
2018-05-27T15:16:53.695Z,99897.50
2018-05-27T15:19:20.080Z,99906.52
2018-05-27T15:21:46.410Z,99896.34
2018-05-27T15:24:12.762Z,99897.75
2018-05-27T15:26:39.077Z,99901.22
2018-05-27T15:29:05.442Z,99897.75
2018-05-27T15:31:31.776Z,99895.92
2018-05-27T15:33:58.064Z,99901.27
2018-05-27T15:36:24.473Z,99908.27
2018-05-27T15:38:50.954Z,99909.70
2018-05-27T15:41:17.263Z,99911.11
2018-05-27T15:43:43.534Z,99915.77
2018-05-27T15:46:13.895Z,99913.21
2018-05-27T15:48:41.729Z,99910.59
2018-05-27T15:51:09.431Z,99915.98
2018-05-27T15:53:37.332Z,99914.92
2018-05-27T15:56:06.541Z,99918.22
2018-05-27T15:58:33.251Z,99917.20
2018-05-27T16:01:00.889Z,99918.09
2018-05-27T16:03:27.846Z,99916.95
2018-05-27T16:05:54.149Z,99922.09
2018-05-27T16:08:20.525Z,99927.81
2018-05-27T16:10:46.878Z,99928.58
2018-05-27T16:13:13.295Z,99927.54
2018-05-27T16:15:39.649Z,99933.63
2018-05-27T16:18:06.038Z,99929.00
2018-05-27T16:20:32.423Z,99934.30
2018-05-27T16:22:58.911Z,99939.61
2018-05-27T16:25:25.273Z,99942.86
2018-05-27T16:27:51.789Z,99945.00
2018-05-27T16:30:18.129Z,99946.67
2018-05-27T16:32:44.657Z,99945.98
2018-05-27T16:35:10.974Z,99946.92
2018-05-27T16:37:37.336Z,99947.24
2018-05-27T16:40:03.637Z,99946.72
2018-05-27T16:42:30.057Z,99947.83
2018-05-27T16:44:56.336Z,99957.95
2018-05-27T16:47:23.710Z,99952.95
2018-05-27T16:49:50.130Z,99960.44
2018-05-27T16:52:16.564Z,99967.80
2018-05-27T16:54:43.101Z,99967.43
2018-05-27T16:57:09.666Z,99960.47
2018-05-27T16:59:35.961Z,99962.80
2018-05-27T17:02:02.317Z,99960.69
2018-05-27T17:04:28.933Z,99963.27
2018-05-27T17:06:55.339Z,99965.74
2018-05-27T17:09:21.629Z,99961.70
2018-05-27T17:11:48.033Z,99971.35
2018-05-27T17:14:14.441Z,99972.45
2018-05-27T17:16:40.698Z,99969.11
2018-05-27T17:19:07.135Z,99979.19
2018-05-27T17:21:33.465Z,99979.65
2018-05-27T17:23:59.872Z,99978.58
2018-05-27T17:26:26.218Z,99975.36
2018-05-27T17:28:52.759Z,99978.68
2018-05-27T17:31:20.133Z,99989.42
2018-05-27T17:33:46.490Z,99996.91
2018-05-27T17:36:12.877Z,99991.77
2018-05-27T17:38:39.389Z,99990.45
2018-05-27T17:41:05.789Z,99987.83
2018-05-27T17:43:32.226Z,99994.61
2018-05-27T17:45:58.548Z,99998.80
2018-05-27T17:48:24.914Z,99996.27
2018-05-27T17:50:51.321Z,100000.53
2018-05-27T17:53:17.707Z,99999.73
2018-05-27T17:55:44.059Z,99996.47
2018-05-27T17:58:10.446Z,100007.97
2018-05-27T18:00:37.757Z,100009.27
2018-05-27T18:03:04.465Z,100007.86
2018-05-27T18:05:30.798Z,100011.32
2018-05-27T18:07:57.304Z,100011.68
2018-05-27T18:10:23.610Z,100008.16
2018-05-27T18:12:50.070Z,100009.73
2018-05-27T18:15:16.613Z,100008.47
2018-05-27T18:17:42.949Z,100019.41
2018-05-27T18:20:09.409Z,100018.02
2018-05-27T18:22:35.751Z,100018.17
2018-05-27T18:25:02.060Z,100027.67
2018-05-27T18:27:28.465Z,100036.97
2018-05-27T18:30:33.044Z,100046.59
2018-05-27T18:32:59.362Z,100057.23
2018-05-27T18:35:25.834Z,100062.12
2018-05-27T18:37:52.191Z,100069.73
2018-05-27T18:40:18.458Z,100068.38
2018-05-27T18:42:44.794Z,100077.38
2018-05-27T18:45:11.198Z,100075.40
2018-05-27T18:47:37.559Z,100079.42
2018-05-27T18:50:04.002Z,100080.91
2018-05-27T18:52:30.270Z,100084.97
2018-05-27T18:54:56.610Z,100091.30
2018-05-27T18:57:22.964Z,100087.64
2018-05-27T18:59:49.390Z,100089.36
2018-05-27T19:02:15.708Z,100092.17
2018-05-27T19:04:42.116Z,100090.80
2018-05-27T19:07:08.400Z,100090.86
2018-05-27T19:09:34.762Z,100092.78
2018-05-27T19:12:01.127Z,100098.22
2018-05-27T19:14:27.621Z,100098.18
2018-05-27T19:16:54.259Z,100105.77
2018-05-27T19:19:20.610Z,100101.58
2018-05-27T19:21:46.954Z,100103.06
2018-05-27T19:24:13.382Z,100106.86
2018-05-27T19:26:39.813Z,100100.41
2018-05-27T19:29:06.225Z,100100.59
2018-05-27T19:31:32.548Z,100094.30
2018-05-27T19:33:58.894Z,100102.16
2018-05-27T19:36:25.270Z,100107.70
2018-05-27T19:38:51.647Z,100111.25
2018-05-27T19:41:18.004Z,100111.65
2018-05-27T19:43:44.541Z,100113.77
2018-05-27T19:46:10.872Z,100111.85
2018-05-27T19:48:37.197Z,100115.52
2018-05-27T19:51:03.597Z,100119.83
2018-05-27T19:53:29.945Z,100117.64
2018-05-27T19:55:56.304Z,100117.21
2018-05-27T19:58:22.732Z,100117.45
2018-05-27T20:00:49.064Z,100114.75
2018-05-27T20:03:15.430Z,100117.71
2018-05-27T20:05:41.774Z,100120.62
2018-05-27T20:08:08.569Z,100121.66
2018-05-27T20:10:34.926Z,100119.86
2018-05-27T20:13:01.251Z,100121.34
2018-05-27T20:15:27.602Z,100117.88
2018-05-27T20:17:53.927Z,100109.33
2018-05-27T20:20:20.274Z,100114.83
2018-05-27T20:22:46.702Z,100114.08
2018-05-27T20:25:13.048Z,100107.20
2018-05-27T20:28:07.123Z,100104.95
2018-05-27T20:30:39.152Z,100108.64
2018-05-27T20:33:05.511Z,100102.25
2018-05-27T20:35:31.914Z,100105.00
2018-05-27T20:37:58.215Z,100097.77
2018-05-27T20:40:24.574Z,100092.48
2018-05-27T20:42:50.889Z,100094.47
2018-05-27T20:45:17.294Z,100095.38
2018-05-27T20:47:43.591Z,100097.89
2018-05-27T20:50:09.913Z,100093.83
2018-05-27T20:52:36.274Z,100093.86
2018-05-27T20:55:02.594Z,100097.05
2018-05-27T20:57:29.020Z,100103.26
2018-05-27T20:59:55.417Z,100101.94
2018-05-27T21:02:21.753Z,100112.02
2018-05-27T21:04:48.086Z,100108.81
2018-05-27T21:07:14.380Z,100111.20
2018-05-27T21:09:40.697Z,100110.81
2018-05-27T21:12:07.022Z,100109.45
2018-05-27T21:14:33.410Z,100110.32
2018-05-27T21:16:59.737Z,100109.21
2018-05-27T21:19:26.091Z,100109.61
2018-05-27T21:21:52.437Z,100104.42
2018-05-27T21:24:18.822Z,100103.41
2018-05-27T21:26:45.173Z,100109.21
2018-05-27T21:29:11.475Z,100108.67
2018-05-27T21:31:37.830Z,100110.47
2018-05-27T21:34:04.174Z,100118.64
2018-05-27T21:36:30.503Z,100112.13
2018-05-27T21:38:56.847Z,100116.42
2018-05-27T21:41:23.157Z,100118.35
2018-05-27T21:43:49.484Z,100122.47
2018-05-27T21:46:15.857Z,100114.68
2018-05-27T21:48:42.200Z,100114.63
2018-05-27T21:51:08.618Z,100112.11
2018-05-27T21:53:34.947Z,100099.81
2018-05-27T21:56:01.257Z,100101.61
2018-05-27T21:58:27.576Z,100101.02
2018-05-27T22:00:53.973Z,100095.95
2018-05-27T22:03:20.305Z,100099.75
2018-05-27T22:05:46.613Z,100102.30
2018-05-27T22:08:12.949Z,100089.05
2018-05-27T22:10:39.301Z,100093.42
2018-05-27T22:13:05.585Z,100085.69
2018-05-27T22:15:32.097Z,100082.44
2018-05-27T22:17:58.567Z,100086.31
2018-05-27T22:20:24.969Z,100077.87
2018-05-27T22:22:51.310Z,100077.58
2018-05-27T22:25:17.643Z,100076.34
2018-05-27T22:27:44.057Z,100073.94
2018-05-27T22:30:10.373Z,100076.05
2018-05-27T22:32:36.824Z,100074.57
2018-05-27T22:35:03.178Z,100078.97
2018-05-27T22:37:29.513Z,100071.34
2018-05-27T22:39:55.819Z,100072.41
2018-05-27T22:42:22.132Z,100077.88
2018-05-27T22:44:48.442Z,100076.16
2018-05-27T22:47:14.754Z,100067.87
2018-05-27T22:49:41.095Z,100069.92
2018-05-27T22:52:07.557Z,100070.08
2018-05-27T22:54:33.906Z,100072.66
2018-05-27T22:57:00.261Z,100070.93
2018-05-27T22:59:34.705Z,100069.11
2018-05-27T23:02:05.961Z,100070.52
2018-05-27T23:04:32.325Z,100068.67
2018-05-27T23:06:58.714Z,100077.22
2018-05-27T23:09:25.136Z,100072.84
2018-05-27T23:11:51.507Z,100075.98
2018-05-27T23:14:17.969Z,100075.42
2018-05-27T23:16:44.417Z,100077.89
2018-05-27T23:19:10.814Z,100072.20
2018-05-27T23:21:37.211Z,100075.49
2018-05-27T23:24:03.717Z,100079.81
2018-05-27T23:26:30.122Z,100075.87
2018-05-27T23:28:56.525Z,100070.28
2018-05-27T23:31:22.830Z,100069.84
2018-05-27T23:33:49.349Z,100076.11
2018-05-27T23:36:15.793Z,100071.95
2018-05-27T23:38:42.189Z,100067.37
2018-05-27T23:41:08.565Z,100061.86
2018-05-27T23:43:35.877Z,100068.77
2018-05-27T23:46:02.233Z,100066.03
2018-05-27T23:48:28.634Z,100067.83
2018-05-27T23:50:55.049Z,100066.75
2018-05-27T23:53:21.521Z,100071.04
2018-05-27T23:55:47.901Z,100070.41
2018-05-27T23:58:14.280Z,100073.21
